sensor_id;sensor_type;location;lat;lon;timestamp;pressure;altitude;pressure_sealevel;temperature;humidity
64827;BME280;51265;53.972;12.286;2022-07-06T00:01:41;101313.13;;;11.50;100.00
64827;BME280;51265;53.972;12.286;2022-07-06T00:04:07;101310.94;;;11.46;100.00
64827;BME280;51265;53.972;12.286;2022-07-06T00:06:33;101310.31;;;11.55;100.00
64827;BME280;51265;53.972;12.286;2022-07-06T00:08:59;101313.03;;;11.60;100.00
64827;BME280;51265;53.972;12.286;2022-07-06T00:11:25;101306.44;;;11.56;100.00
64827;BME280;51265;53.972;12.286;2022-07-06T00:13:51;101319.72;;;11.54;100.00
64827;BME280;51265;53.972;12.286;2022-07-06T00:16:18;101309.81;;;11.47;100.00
64827;BME280;51265;53.972;12.286;2022-07-06T00:18:44;101316.47;;;11.46;100.00
64827;BME280;51265;53.972;12.286;2022-07-06T00:21:10;101316.47;;;11.46;100.00
64827;BME280;51265;53.972;12.286;2022-07-06T00:23:36;101321.97;;;11.46;100.00
64827;BME280;51265;53.972;12.286;2022-07-06T00:26:02;101318.34;;;11.51;100.00
64827;BME280;51265;53.972;12.286;2022-07-06T00:28:28;101320.53;;;11.54;100.00
64827;BME280;51265;53.972;12.286;2022-07-06T00:30:54;101326.56;;;11.56;100.00
64827;BME280;51265;53.972;12.286;2022-07-06T00:33:20;101318.84;;;11.58;100.00
64827;BME280;51265;53.972;12.286;2022-07-06T00:35:47;101317.97;;;11.63;100.00
64827;BME280;51265;53.972;12.286;2022-07-06T00:38:13;101317.38;;;11.66;100.00
64827;BME280;51265;53.972;12.286;2022-07-06T00:40:39;101316.25;;;11.72;100.00
64827;BME280;51265;53.972;12.286;2022-07-06T00:43:05;101305.19;;;11.72;100.00
64827;BME280;51265;53.972;12.286;2022-07-06T00:45:32;101307.97;;;11.72;100.00
64827;BME280;51265;53.972;12.286;2022-07-06T00:47:57;101308.97;;;11.81;100.00
64827;BME280;51265;53.972;12.286;2022-07-06T00:50:23;101309.56;;;11.83;100.00
64827;BME280;51265;53.972;12.286;2022-07-06T00:52:56;101315.06;;;11.78;100.00
64827;BME280;51265;53.972;12.286;2022-07-06T00:55:28;101310.47;;;11.68;100.00
64827;BME280;51265;53.972;12.286;2022-07-06T00:57:56;101309.59;;;11.73;100.00
64827;BME280;51265;53.972;12.286;2022-07-06T01:00:24;101304.13;;;11.68;100.00
64827;BME280;51265;53.972;12.286;2022-07-06T01:02:51;101314.09;;;11.64;100.00
64827;BME280;51265;53.972;12.286;2022-07-06T01:05:17;101311.03;;;11.65;100.00
64827;BME280;51265;53.972;12.286;2022-07-06T01:07:46;101309.66;;;11.68;100.00
64827;BME280;51265;53.972;12.286;2022-07-06T01:10:14;101308.53;;;11.69;100.00
64827;BME280;51265;53.972;12.286;2022-07-06T01:12:42;101316.25;;;11.72;100.00
64827;BME280;51265;53.972;12.286;2022-07-06T01:15:17;101309.31;;;11.75;100.00
64827;BME280;51265;53.972;12.286;2022-07-06T01:17:44;101310.97;;;11.76;100.00
64827;BME280;51265;53.972;12.286;2022-07-06T01:22:37;101307.16;;;11.71;100.00
64827;BME280;51265;53.972;12.286;2022-07-06T01:25:05;101310.97;;;11.76;100.00
64827;BME280;51265;53.972;12.286;2022-07-06T01:27:31;101297.44;;;11.74;100.00
64827;BME280;51265;53.972;12.286;2022-07-06T01:29:57;101309.53;;;11.78;100.00
64827;BME280;51265;53.972;12.286;2022-07-06T01:32:25;101299.56;;;11.82;100.00
64827;BME280;51265;53.972;12.286;2022-07-06T01:34:50;101299.03;;;11.85;100.00
64827;BME280;51265;53.972;12.286;2022-07-06T01:37:16;101299.56;;;11.82;100.00
64827;BME280;51265;53.972;12.286;2022-07-06T01:39:42;101306.50;;;11.80;100.00
64827;BME280;51265;53.972;12.286;2022-07-06T01:42:08;101296.56;;;11.79;100.00
64827;BME280;51265;53.972;12.286;2022-07-06T01:44:34;101306.84;;;11.73;100.00
64827;BME280;51265;53.972;12.286;2022-07-06T01:47:00;101298.63;;;11.68;100.00
64827;BME280;51265;53.972;12.286;2022-07-06T01:49:26;101303.88;;;11.64;100.00
64827;BME280;51265;53.972;12.286;2022-07-06T01:51:52;101295.34;;;11.61;100.00
64827;BME280;51265;53.972;12.286;2022-07-06T01:54:18;101295.94;;;11.58;100.00
64827;BME280;51265;53.972;12.286;2022-07-06T01:56:44;101289.88;;;11.56;100.00
64827;BME280;51265;53.972;12.286;2022-07-06T01:59:10;101293.53;;;11.51;100.00
64827;BME280;51265;53.972;12.286;2022-07-06T02:01:37;101295.16;;;11.52;100.00
64827;BME280;51265;53.972;12.286;2022-07-06T02:04:02;101299.84;;;11.52;100.00
64827;BME280;51265;53.972;12.286;2022-07-06T02:06:28;101296.28;;;11.51;100.00
64827;BME280;51265;53.972;12.286;2022-07-06T02:08:54;101296.84;;;11.48;100.00
64827;BME280;51265;53.972;12.286;2022-07-06T02:11:20;101295.97;;;11.53;100.00
64827;BME280;51265;53.972;12.286;2022-07-06T02:13:46;101289.06;;;11.55;100.00
64827;BME280;51265;53.972;12.286;2022-07-06T02:16:12;101291.78;;;11.60;100.00
64827;BME280;51265;53.972;12.286;2022-07-06T02:18:39;101290.38;;;11.63;100.00
64827;BME280;51265;53.972;12.286;2022-07-06T02:21:05;101296.72;;;11.63;100.00
64827;BME280;51265;53.972;12.286;2022-07-06T02:23:31;101294.25;;;11.62;100.00
64827;BME280;51265;53.972;12.286;2022-07-06T02:25:57;101293.16;;;11.63;100.00
64827;BME280;51265;53.972;12.286;2022-07-06T02:28:24;101299.75;;;11.62;100.00
64827;BME280;51265;53.972;12.286;2022-07-06T02:30:51;101301.44;;;11.63;100.00
64827;BME280;51265;53.972;12.286;2022-07-06T02:33:17;101303.63;;;11.61;100.00
64827;BME280;51265;53.972;12.286;2022-07-06T02:35:43;101289.56;;;11.62;100.00
64827;BME280;51265;53.972;12.286;2022-07-06T02:38:10;101298.13;;;11.61;100.00
64827;BME280;51265;53.972;12.286;2022-07-06T02:40:36;101292.09;;;11.59;100.00
64827;BME280;51265;53.972;12.286;2022-07-06T02:43:04;101288.78;;;11.57;100.00
64827;BME280;51265;53.972;12.286;2022-07-06T02:45:31;101295.41;;;11.56;100.00
64827;BME280;51265;53.972;12.286;2022-07-06T02:47:57;101292.13;;;11.54;100.00
64827;BME280;51265;53.972;12.286;2022-07-06T02:50:24;101288.81;;;11.52;100.00
64827;BME280;51265;53.972;12.286;2022-07-06T02:52:51;101283.88;;;11.48;100.00
64827;BME280;51265;53.972;12.286;2022-07-06T02:55:17;101293.28;;;11.47;100.00
64827;BME280;51265;53.972;12.286;2022-07-06T02:57:43;101287.75;;;11.47;100.00
64827;BME280;51265;53.972;12.286;2022-07-06T03:00:11;101290.81;;;11.46;100.00
64827;BME280;51265;53.972;12.286;2022-07-06T03:02:38;101285.28;;;11.46;100.00
64827;BME280;51265;53.972;12.286;2022-07-06T03:05:05;101282.25;;;11.47;100.00
64827;BME280;51265;53.972;12.286;2022-07-06T03:07:31;101286.69;;;11.43;100.00
64827;BME280;51265;53.972;12.286;2022-07-06T03:09:58;101286.13;;;11.46;100.00
64827;BME280;51265;53.972;12.286;2022-07-06T03:12:24;101286.69;;;11.43;100.00
64827;BME280;51265;53.972;12.286;2022-07-06T03:14:50;101288.56;;;11.48;100.00
64827;BME280;51265;53.972;12.286;2022-07-06T03:17:16;101286.69;;;11.43;100.00
64827;BME280;51265;53.972;12.286;2022-07-06T03:19:42;101296.66;;;11.39;100.00
64827;BME280;51265;53.972;12.286;2022-07-06T03:22:09;101296.69;;;11.34;100.00
64827;BME280;51265;53.972;12.286;2022-07-06T03:24:34;101300.00;;;11.31;100.00
64827;BME280;51265;53.972;12.286;2022-07-06T03:27:00;101297.00;;;11.28;100.00
64827;BME280;51265;53.972;12.286;2022-07-06T03:29:27;101293.16;;;11.23;100.00
64827;BME280;51265;53.972;12.286;2022-07-06T03:31:53;101294.00;;;11.24;100.00
64827;BME280;51265;53.972;12.286;2022-07-06T03:34:19;101301.75;;;11.22;100.00
64827;BME280;51265;53.972;12.286;2022-07-06T03:36:45;101302.88;;;11.21;100.00
64827;BME280;51265;53.972;12.286;2022-07-06T03:39:11;101294.00;;;11.24;100.00
64827;BME280;51265;53.972;12.286;2022-07-06T03:41:38;101296.75;;;11.29;100.00
64827;BME280;51265;53.972;12.286;2022-07-06T03:44:04;101297.81;;;11.33;100.00
64827;BME280;51265;53.972;12.286;2022-07-06T03:46:31;101300.53;;;11.38;100.00
64827;BME280;51265;53.972;12.286;2022-07-06T03:48:57;101297.72;;;11.43;100.00
64827;BME280;51265;53.972;12.286;2022-07-06T03:51:24;101296.59;;;11.50;100.00
64827;BME280;51265;53.972;12.286;2022-07-06T03:53:50;101300.94;;;11.56;100.00
64827;BME280;51265;53.972;12.286;2022-07-06T03:56:17;101305.28;;;11.62;100.00
64827;BME280;51265;53.972;12.286;2022-07-06T03:59:01;101301.94;;;11.65;100.00
64827;BME280;51265;53.972;12.286;2022-07-06T04:01:30;101301.69;;;11.66;100.00
64827;BME280;51265;53.972;12.286;2022-07-06T04:03:57;101304.38;;;11.71;100.00
64827;BME280;51265;53.972;12.286;2022-07-06T04:06:23;101304.03;;;11.78;100.00
64827;BME280;51265;53.972;12.286;2022-07-06T04:08:49;101307.63;;;11.84;100.00
64827;BME280;51265;53.972;12.286;2022-07-06T04:11:15;101298.47;;;11.88;100.00
64827;BME280;51265;53.972;12.286;2022-07-06T04:13:41;101300.41;;;11.88;100.00
64827;BME280;51265;53.972;12.286;2022-07-06T04:16:07;101301.16;;;11.93;100.00
64827;BME280;51265;53.972;12.286;2022-07-06T04:18:34;101308.25;;;12.00;100.00
64827;BME280;51265;53.972;12.286;2022-07-06T04:21:00;101304.41;;;12.01;100.00
64827;BME280;51265;53.972;12.286;2022-07-06T04:23:29;101298.06;;;12.00;100.00
64827;BME280;51265;53.972;12.286;2022-07-06T04:25:56;101302.47;;;12.01;100.00
64827;BME280;51265;53.972;12.286;2022-07-06T04:28:23;101308.56;;;11.98;100.00
64827;BME280;51265;53.972;12.286;2022-07-06T04:30:50;101305.50;;;12.00;100.00
64827;BME280;51265;53.972;12.286;2022-07-06T04:33:19;101297.22;;;12.00;100.00
64827;BME280;51265;53.972;12.286;2022-07-06T04:35:47;101304.69;;;11.99;100.00
64827;BME280;51265;53.972;12.286;2022-07-06T04:38:13;101304.47;;;11.95;100.00
64827;BME280;51265;53.972;12.286;2022-07-06T04:40:40;101301.72;;;11.90;100.00
64827;BME280;51265;53.972;12.286;2022-07-06T04:43:10;101301.72;;;11.90;100.00
64827;BME280;51265;53.972;12.286;2022-07-06T04:45:36;101307.25;;;11.90;100.00
64827;BME280;51265;53.972;12.286;2022-07-06T04:48:04;101305.03;;;11.92;100.00
64827;BME280;51265;53.972;12.286;2022-07-06T04:50:30;101309.31;;;12.04;100.00
64827;BME280;51265;53.972;12.286;2022-07-06T04:53:00;101300.41;;;12.12;100.00
64827;BME280;51265;53.972;12.286;2022-07-06T04:55:26;101299.31;;;12.13;100.00
64827;BME280;51265;53.972;12.286;2022-07-06T04:57:52;101304.94;;;12.27;100.00
64827;BME280;51265;53.972;12.286;2022-07-06T05:00:19;101308.28;;;12.48;100.00
64827;BME280;51265;53.972;12.286;2022-07-06T05:02:51;101311.38;;;12.65;100.00
64827;BME280;51265;53.972;12.286;2022-07-06T05:05:18;101305.13;;;12.78;100.00
64827;BME280;51265;53.972;12.286;2022-07-06T05:07:45;101305.53;;;12.90;100.00
64827;BME280;51265;53.972;12.286;2022-07-06T05:10:12;101307.94;;;12.97;100.00
64827;BME280;51265;53.972;12.286;2022-07-06T05:12:40;101303.66;;;13.05;100.00
64827;BME280;51265;53.972;12.286;2022-07-06T05:15:07;101311.31;;;13.13;100.00
64827;BME280;51265;53.972;12.286;2022-07-06T05:17:34;101312.34;;;13.17;100.00
64827;BME280;51265;53.972;12.286;2022-07-06T05:20:01;101310.34;;;13.23;100.00
64827;BME280;51265;53.972;12.286;2022-07-06T05:22:31;101310.19;;;13.33;100.00
64827;BME280;51265;53.972;12.286;2022-07-06T05:24:57;101310.84;;;13.43;100.00
64827;BME280;51265;53.972;12.286;2022-07-06T05:27:23;101305.22;;;13.49;100.00
64827;BME280;51265;53.972;12.286;2022-07-06T05:29:49;101298.19;;;13.56;100.00
64827;BME280;51265;53.972;12.286;2022-07-06T05:32:16;101312.16;;;13.65;100.00
64827;BME280;51265;53.972;12.286;2022-07-06T05:34:42;101298.84;;;13.67;100.00
64827;BME280;51265;53.972;12.286;2022-07-06T05:37:09;101307.97;;;13.67;100.00
64827;BME280;51265;53.972;12.286;2022-07-06T05:39:35;101310.97;;;13.71;100.00
64827;BME280;51265;53.972;12.286;2022-07-06T05:42:01;101318.47;;;13.52;100.00
64827;BME280;51265;53.972;12.286;2022-07-06T05:44:27;101311.72;;;13.58;100.00
64827;BME280;51265;53.972;12.286;2022-07-06T05:46:53;101317.50;;;13.75;100.00
64827;BME280;51265;53.972;12.286;2022-07-06T05:49:40;101322.53;;;13.73;100.00
64827;BME280;51265;53.972;12.286;2022-07-06T05:52:24;101317.88;;;13.55;100.00
64827;BME280;51265;53.972;12.286;2022-07-06T05:54:50;101317.56;;;13.37;100.00
64827;BME280;51265;53.972;12.286;2022-07-06T05:57:16;101321.38;;;13.41;100.00
64827;BME280;51265;53.972;12.286;2022-07-06T05:59:43;101313.97;;;13.56;100.00
64827;BME280;51265;53.972;12.286;2022-07-06T06:02:10;101312.13;;;13.51;100.00
64827;BME280;51265;53.972;12.286;2022-07-06T06:04:37;101321.31;;;13.47;100.00
64827;BME280;51265;53.972;12.286;2022-07-06T06:07:03;101318.00;;;13.63;100.00
64827;BME280;51265;53.972;12.286;2022-07-06T06:09:29;101327.59;;;13.85;100.00
64827;BME280;51265;53.972;12.286;2022-07-06T06:11:55;101319.97;;;14.23;100.00
64827;BME280;51265;53.972;12.286;2022-07-06T06:14:21;101327.09;;;14.57;100.00
64827;BME280;51265;53.972;12.286;2022-07-06T06:16:47;101331.97;;;14.87;100.00
64827;BME280;51265;53.972;12.286;2022-07-06T06:19:13;101328.47;;;14.95;100.00
64827;BME280;51265;53.972;12.286;2022-07-06T06:21:39;101330.94;;;14.83;100.00
64827;BME280;51265;53.972;12.286;2022-07-06T06:24:04;101316.00;;;14.57;100.00
64827;BME280;51265;53.972;12.286;2022-07-06T06:26:30;101328.91;;;14.48;100.00
64827;BME280;51265;53.972;12.286;2022-07-06T06:28:56;101329.31;;;14.27;100.00
64827;BME280;51265;53.972;12.286;2022-07-06T06:31:22;101318.94;;;14.19;100.00
64827;BME280;51265;53.972;12.286;2022-07-06T06:33:48;101319.75;;;14.33;100.00
64827;BME280;51265;53.972;12.286;2022-07-06T06:36:14;101319.50;;;14.49;100.00
64827;BME280;51265;53.972;12.286;2022-07-06T06:38:39;101318.66;;;14.62;100.00
64827;BME280;51265;53.972;12.286;2022-07-06T06:41:05;101324.19;;;14.62;100.00
64827;BME280;51265;53.972;12.286;2022-07-06T06:43:31;101324.41;;;14.52;100.00
64827;BME280;51265;53.972;12.286;2022-07-06T06:46:06;101321.72;;;14.47;99.67
64827;BME280;51265;53.972;12.286;2022-07-06T06:48:31;101323.38;;;14.48;100.00
64827;BME280;51265;53.972;12.286;2022-07-06T06:50:57;101327.09;;;14.57;100.00
64827;BME280;51265;53.972;12.286;2022-07-06T06:53:23;101329.56;;;14.72;100.00
64827;BME280;51265;53.972;12.286;2022-07-06T06:55:49;101330.34;;;14.86;99.96
64827;BME280;51265;53.972;12.286;2022-07-06T06:58:15;101334.00;;;15.09;100.00
64827;BME280;51265;53.972;12.286;2022-07-06T07:00:40;101325.19;;;14.93;100.00
64827;BME280;51265;53.972;12.286;2022-07-06T07:03:09;101334.78;;;14.60;100.00
64827;BME280;51265;53.972;12.286;2022-07-06T07:05:35;101335.16;;;14.39;100.00
64827;BME280;51265;53.972;12.286;2022-07-06T07:08:01;101332.56;;;14.29;100.00
64827;BME280;51265;53.972;12.286;2022-07-06T07:10:28;101335.44;;;14.24;100.00
64827;BME280;51265;53.972;12.286;2022-07-06T07:12:53;101342.44;;;14.22;100.00
64827;BME280;51265;53.972;12.286;2022-07-06T07:15:19;101346.09;;;14.17;100.00
64827;BME280;51265;53.972;12.286;2022-07-06T07:17:45;101339.56;;;14.13;100.00
64827;BME280;51265;53.972;12.286;2022-07-06T07:20:11;101357.91;;;14.09;100.00
64827;BME280;51265;53.972;12.286;2022-07-06T07:22:37;101347.56;;;14.14;100.00
64827;BME280;51265;53.972;12.286;2022-07-06T07:25:04;101344.78;;;14.28;100.00
64827;BME280;51265;53.972;12.286;2022-07-06T07:27:30;101357.84;;;14.41;100.00
64827;BME280;51265;53.972;12.286;2022-07-06T07:29:56;101357.03;;;13.94;100.00
64827;BME280;51265;53.972;12.286;2022-07-06T07:32:22;101356.47;;;13.79;100.00
64827;BME280;51265;53.972;12.286;2022-07-06T07:34:47;101358.53;;;13.73;100.00
64827;BME280;51265;53.972;12.286;2022-07-06T07:37:13;101360.25;;;13.69;100.00
64827;BME280;51265;53.972;12.286;2022-07-06T07:39:39;101368.63;;;13.64;100.00
64827;BME280;51265;53.972;12.286;2022-07-06T07:42:05;101364.25;;;13.63;100.00
64827;BME280;51265;53.972;12.286;2022-07-06T07:44:31;101359.47;;;13.82;100.00
64827;BME280;51265;53.972;12.286;2022-07-06T07:46:57;101360.00;;;13.84;100.00
64827;BME280;51265;53.972;12.286;2022-07-06T07:49:22;101373.28;;;14.01;100.00
64827;BME280;51265;53.972;12.286;2022-07-06T07:51:49;101368.66;;;13.97;100.00
64827;BME280;51265;53.972;12.286;2022-07-06T07:54:15;101364.09;;;13.87;100.00
64827;BME280;51265;53.972;12.286;2022-07-06T07:56:40;101360.34;;;13.97;100.00
64827;BME280;51265;53.972;12.286;2022-07-06T07:59:07;101359.91;;;13.89;100.00
64827;BME280;51265;53.972;12.286;2022-07-06T08:01:34;101355.28;;;13.85;100.00
64827;BME280;51265;53.972;12.286;2022-07-06T08:04:00;101366.38;;;13.99;100.00
64827;BME280;51265;53.972;12.286;2022-07-06T08:06:26;101367.28;;;14.40;100.00
64827;BME280;51265;53.972;12.286;2022-07-06T08:08:52;101365.16;;;14.92;100.00
64827;BME280;51265;53.972;12.286;2022-07-06T08:11:17;101370.16;;;15.18;100.00
64827;BME280;51265;53.972;12.286;2022-07-06T08:13:43;101366.13;;;15.60;100.00
64827;BME280;51265;53.972;12.286;2022-07-06T08:16:09;101369.94;;;15.51;100.00
64827;BME280;51265;53.972;12.286;2022-07-06T08:18:36;101382.03;;;15.32;100.00
64827;BME280;51265;53.972;12.286;2022-07-06T08:21:02;101381.63;;;15.39;100.00
64827;BME280;51265;53.972;12.286;2022-07-06T08:23:28;101372.59;;;15.19;100.00
64827;BME280;51265;53.972;12.286;2022-07-06T08:25:54;101379.19;;;15.24;100.00
64827;BME280;51265;53.972;12.286;2022-07-06T08:28:20;101385.81;;;14.86;100.00
64827;BME280;51265;53.972;12.286;2022-07-06T08:30:46;101374.81;;;14.54;100.00
64827;BME280;51265;53.972;12.286;2022-07-06T08:33:13;101370.78;;;14.46;100.00
64827;BME280;51265;53.972;12.286;2022-07-06T08:35:39;101375.75;;;14.77;100.00
64827;BME280;51265;53.972;12.286;2022-07-06T08:38:05;101378.41;;;14.95;100.00
64827;BME280;51265;53.972;12.286;2022-07-06T08:40:34;101388.47;;;14.91;100.00
64827;BME280;51265;53.972;12.286;2022-07-06T08:43:03;101386.63;;;14.73;100.00
64827;BME280;51265;53.972;12.286;2022-07-06T08:45:29;101392.91;;;14.18;100.00
64827;BME280;51265;53.972;12.286;2022-07-06T08:47:57;101390.72;;;13.31;100.00
64827;BME280;51265;53.972;12.286;2022-07-06T08:50:25;101391.00;;;12.87;100.00
64827;BME280;51265;53.972;12.286;2022-07-06T08:52:51;101395.00;;;12.76;100.00
64827;BME280;51265;53.972;12.286;2022-07-06T08:55:18;101400.88;;;12.93;100.00
64827;BME280;51265;53.972;12.286;2022-07-06T08:57:47;101403.91;;;12.91;100.00
64827;BME280;51265;53.972;12.286;2022-07-06T09:00:14;101394.47;;;12.98;100.00
64827;BME280;51265;53.972;12.286;2022-07-06T09:02:40;101401.69;;;12.93;100.00
64827;BME280;51265;53.972;12.286;2022-07-06T09:05:08;101395.34;;;12.93;100.00
64827;BME280;51265;53.972;12.286;2022-07-06T09:07:34;101398.00;;;13.22;100.00
64827;BME280;51265;53.972;12.286;2022-07-06T09:10:01;101396.09;;;13.41;100.00
64827;BME280;51265;53.972;12.286;2022-07-06T09:12:27;101398.00;;;13.79;100.00
64827;BME280;51265;53.972;12.286;2022-07-06T09:14:55;101393.72;;;14.19;100.00
64827;BME280;51265;53.972;12.286;2022-07-06T09:17:25;101400.16;;;14.47;100.00
64827;BME280;51265;53.972;12.286;2022-07-06T09:19:51;101399.78;;;14.81;100.00
64827;BME280;51265;53.972;12.286;2022-07-06T09:22:31;101390.13;;;14.79;100.00
64827;BME280;51265;53.972;12.286;2022-07-06T09:25:05;101397.38;;;15.16;100.00
64827;BME280;51265;53.972;12.286;2022-07-06T09:27:37;101392.13;;;15.28;100.00
64827;BME280;51265;53.972;12.286;2022-07-06T09:30:03;101398.25;;;15.39;100.00
64827;BME280;51265;53.972;12.286;2022-07-06T09:32:30;101395.56;;;15.48;100.00
64827;BME280;51265;53.972;12.286;2022-07-06T09:34:56;101402.41;;;15.64;100.00
64827;BME280;51265;53.972;12.286;2022-07-06T09:37:22;101396.81;;;15.41;100.00
64827;BME280;51265;53.972;12.286;2022-07-06T09:39:50;101399.94;;;15.62;100.00
64827;BME280;51265;53.972;12.286;2022-07-06T09:42:24;101397.75;;;15.96;100.00
64827;BME280;51265;53.972;12.286;2022-07-06T09:44:50;101397.00;;;16.66;100.00
64827;BME280;51265;53.972;12.286;2022-07-06T09:47:17;101385.06;;;16.65;95.98
64827;BME280;51265;53.972;12.286;2022-07-06T09:49:45;101385.84;;;16.97;95.20
64827;BME280;51265;53.972;12.286;2022-07-06T09:52:11;101387.25;;;16.77;99.28
64827;BME280;51265;53.972;12.286;2022-07-06T09:54:38;101380.16;;;16.31;100.00
64827;BME280;51265;53.972;12.286;2022-07-06T09:57:05;101385.38;;;15.79;100.00
64827;BME280;51265;53.972;12.286;2022-07-06T09:59:33;101385.44;;;15.65;100.00
64827;BME280;51265;53.972;12.286;2022-07-06T10:02:05;101393.91;;;15.47;100.00
64827;BME280;51265;53.972;12.286;2022-07-06T10:04:32;101386.59;;;15.51;100.00
64827;BME280;51265;53.972;12.286;2022-07-06T10:06:58;101383.38;;;15.71;100.00
64827;BME280;51265;53.972;12.286;2022-07-06T10:09:26;101396.00;;;15.77;100.00
64827;BME280;51265;53.972;12.286;2022-07-06T10:11:56;101391.50;;;15.31;100.00
64827;BME280;51265;53.972;12.286;2022-07-06T10:14:28;101395.63;;;15.20;100.00
64827;BME280;51265;53.972;12.286;2022-07-06T10:16:58;101399.22;;;15.34;100.00
64827;BME280;51265;53.972;12.286;2022-07-06T10:19:25;101390.75;;;15.76;100.00
64827;BME280;51265;53.972;12.286;2022-07-06T10:21:52;101389.63;;;16.61;100.00
64827;BME280;51265;53.972;12.286;2022-07-06T10:24:19;101389.69;;;17.45;95.89
64827;BME280;51265;53.972;12.286;2022-07-06T10:26:46;101380.00;;;17.33;91.79
64827;BME280;51265;53.972;12.286;2022-07-06T10:29:12;101382.16;;;17.36;95.68
64827;BME280;51265;53.972;12.286;2022-07-06T10:31:46;101375.72;;;16.61;90.95
64827;BME280;51265;53.972;12.286;2022-07-06T10:34:15;101377.44;;;16.40;94.04
64827;BME280;51265;53.972;12.286;2022-07-06T10:36:42;101381.75;;;16.24;97.63
64827;BME280;51265;53.972;12.286;2022-07-06T10:39:10;101378.53;;;16.30;98.57
64827;BME280;51265;53.972;12.286;2022-07-06T10:41:55;101370.81;;;16.27;98.43
64827;BME280;51265;53.972;12.286;2022-07-06T10:44:24;101375.22;;;15.97;100.00
64827;BME280;51265;53.972;12.286;2022-07-06T10:49:18;101374.28;;;15.79;100.00
64827;BME280;51265;53.972;12.286;2022-07-06T10:51:44;101377.44;;;15.86;96.58
64827;BME280;51265;53.972;12.286;2022-07-06T10:54:10;101379.25;;;15.91;91.46
64827;BME280;51265;53.972;12.286;2022-07-06T10:59:11;101384.88;;;16.93;83.02
64827;BME280;51265;53.972;12.286;2022-07-06T11:01:37;101376.88;;;17.26;72.92
64827;BME280;51265;53.972;12.286;2022-07-06T11:06:32;101374.38;;;16.59;72.90
64827;BME280;51265;53.972;12.286;2022-07-06T11:09:31;101382.16;;;17.54;70.45
64827;BME280;51265;53.972;12.286;2022-07-06T11:11:57;101380.19;;;17.80;67.94
64827;BME280;51265;53.972;12.286;2022-07-06T11:14:23;101379.84;;;17.38;68.45
64827;BME280;51265;53.972;12.286;2022-07-06T11:19:16;101384.34;;;16.20;76.72
64827;BME280;51265;53.972;12.286;2022-07-06T11:21:56;101393.09;;;15.82;78.59
64827;BME280;51265;53.972;12.286;2022-07-06T11:26:51;101403.16;;;15.56;83.83
64827;BME280;51265;53.972;12.286;2022-07-06T11:29:19;101388.75;;;15.54;83.08
64827;BME280;51265;53.972;12.286;2022-07-06T11:31:49;101401.28;;;15.65;84.29
64827;BME280;51265;53.972;12.286;2022-07-06T11:34:21;101393.84;;;15.74;83.07
64827;BME280;51265;53.972;12.286;2022-07-06T11:36:47;101407.03;;;15.91;84.19
64827;BME280;51265;53.972;12.286;2022-07-06T11:39:14;101408.81;;;15.87;82.38
64827;BME280;51265;53.972;12.286;2022-07-06T11:41:41;101401.53;;;16.00;83.65
64827;BME280;51265;53.972;12.286;2022-07-06T11:44:07;101407.72;;;16.19;84.74
64827;BME280;51265;53.972;12.286;2022-07-06T11:46:34;101413.78;;;16.21;81.92
64827;BME280;51265;53.972;12.286;2022-07-06T11:49:05;101397.72;;;16.09;81.05
64827;BME280;51265;53.972;12.286;2022-07-06T11:51:34;101405.47;;;15.99;81.13
64827;BME280;51265;53.972;12.286;2022-07-06T11:54:03;101404.91;;;16.10;82.00
64827;BME280;51265;53.972;12.286;2022-07-06T11:56:34;101396.47;;;16.24;80.00
64827;BME280;51265;53.972;12.286;2022-07-06T11:59:00;101400.53;;;16.18;79.09
64827;BME280;51265;53.972;12.286;2022-07-06T12:01:28;101399.66;;;15.86;78.37
64827;BME280;51265;53.972;12.286;2022-07-06T12:04:01;101394.63;;;15.88;80.23
64827;BME280;51265;53.972;12.286;2022-07-06T12:06:30;101400.66;;;16.13;80.68
64827;BME280;51265;53.972;12.286;2022-07-06T12:08:59;101396.47;;;16.24;79.90
64827;BME280;51265;53.972;12.286;2022-07-06T12:11:27;101397.31;;;16.56;80.75
64827;BME280;51265;53.972;12.286;2022-07-06T12:13:56;101393.06;;;16.67;78.60
64827;BME280;51265;53.972;12.286;2022-07-06T12:16:30;101389.91;;;16.82;76.08
64827;BME280;51265;53.972;12.286;2022-07-06T12:18:56;101394.38;;;17.09;77.15
64827;BME280;51265;53.972;12.286;2022-07-06T12:21:22;101387.25;;;17.52;74.84
64827;BME280;51265;53.972;12.286;2022-07-06T12:23:50;101385.28;;;17.43;73.37
64827;BME280;51265;53.972;12.286;2022-07-06T12:26:17;101391.16;;;17.51;74.28
64827;BME280;51265;53.972;12.286;2022-07-06T12:28:44;101379.34;;;17.36;75.47
64827;BME280;51265;53.972;12.286;2022-07-06T12:31:10;101386.09;;;17.87;76.62
64827;BME280;51265;53.972;12.286;2022-07-06T12:33:37;101377.34;;;18.24;74.13
64827;BME280;51265;53.972;12.286;2022-07-06T12:36:15;101374.09;;;18.51;73.67
64827;BME280;51265;53.972;12.286;2022-07-06T12:38:46;101370.75;;;18.75;73.77
64827;BME280;51265;53.972;12.286;2022-07-06T12:41:28;101371.56;;;18.76;73.89
64827;BME280;51265;53.972;12.286;2022-07-06T12:44:06;101371.34;;;18.89;69.97
64827;BME280;51265;53.972;12.286;2022-07-06T12:46:37;101364.91;;;18.89;70.68
64827;BME280;51265;53.972;12.286;2022-07-06T12:49:23;101363.13;;;18.46;72.89